createdAt,value
2023-04-19T00:02:25.834Z,14.70
2023-04-19T00:04:53.935Z,13.70
2023-04-19T00:07:21.944Z,14.00
2023-04-19T00:09:49.695Z,14.60
2023-04-19T00:12:17.402Z,14.70
2023-04-19T00:14:45.166Z,14.40
2023-04-19T00:17:13.685Z,14.60
2023-04-19T00:19:41.386Z,14.30
2023-04-19T00:22:09.161Z,14.20
2023-04-19T00:24:36.866Z,13.40
2023-04-19T00:27:04.931Z,13.40
2023-04-19T00:29:32.727Z,13.20
2023-04-19T00:32:01.061Z,12.40
2023-04-19T00:34:28.737Z,11.80
2023-04-19T00:36:56.745Z,12.80
2023-04-19T00:39:24.471Z,12.60
2023-04-19T00:41:53.263Z,11.90
2023-04-19T00:44:20.983Z,12.30
2023-04-19T00:46:49.707Z,11.80
2023-04-19T00:49:21.822Z,11.70
2023-04-19T00:51:50.974Z,13.30
2023-04-19T00:54:20.109Z,11.40
2023-04-19T00:56:47.790Z,11.70
2023-04-19T00:59:16.490Z,12.10
2023-04-19T01:01:44.757Z,11.40
2023-04-19T01:04:12.859Z,12.00
2023-04-19T01:06:42.071Z,11.90
2023-04-19T01:09:09.829Z,12.60
2023-04-19T01:11:37.573Z,13.40
2023-04-19T01:14:05.351Z,13.40
2023-04-19T01:16:33.915Z,12.60
2023-04-19T01:19:02.330Z,13.10
2023-04-19T01:21:30.798Z,12.60
2023-04-19T01:23:58.599Z,12.90
2023-04-19T01:26:26.452Z,12.90
2023-04-19T01:28:54.225Z,13.90
2023-04-19T01:31:22.488Z,13.90
2023-04-19T01:33:50.369Z,13.40
2023-04-19T01:36:18.150Z,14.80
2023-04-19T01:38:47.860Z,14.80
2023-04-19T01:41:15.977Z,14.90
2023-04-19T01:43:43.679Z,14.40
2023-04-19T01:46:11.929Z,15.40
2023-04-19T01:48:39.708Z,15.40
2023-04-19T01:51:07.454Z,15.70
2023-04-19T01:53:35.445Z,16.10
2023-04-19T01:56:03.190Z,15.50
2023-04-19T01:58:30.897Z,13.80
2023-04-19T02:00:59.208Z,15.50
2023-04-19T02:03:45.743Z,15.10
2023-04-19T02:06:14.426Z,14.50
2023-04-19T02:08:42.953Z,14.00
2023-04-19T02:11:16.400Z,16.00
2023-04-19T02:13:44.144Z,15.30
2023-04-19T02:16:29.561Z,15.20
2023-04-19T02:18:58.865Z,15.10
2023-04-19T02:21:27.678Z,15.20
2023-04-19T02:23:55.469Z,15.30
2023-04-19T02:26:24.725Z,15.70
2023-04-19T02:28:53.266Z,13.80
2023-04-19T02:31:21.259Z,14.40
2023-04-19T02:33:49.533Z,15.60
2023-04-19T02:36:17.939Z,14.90
2023-04-19T02:38:45.840Z,14.50
2023-04-19T02:41:13.587Z,14.50
2023-04-19T02:43:41.546Z,15.10
2023-04-19T02:46:10.593Z,14.80
2023-04-19T02:48:39.018Z,14.80
2023-04-19T02:51:07.367Z,12.90
2023-04-19T02:53:35.433Z,14.20
2023-04-19T02:56:03.956Z,14.60
2023-04-19T02:58:31.682Z,13.80
2023-04-19T03:00:59.453Z,14.80
2023-04-19T03:03:28.384Z,13.50
2023-04-19T03:05:56.299Z,14.20
2023-04-19T03:08:24.039Z,13.10
2023-04-19T03:10:51.842Z,13.50
2023-04-19T03:13:19.643Z,13.50
2023-04-19T03:15:48.676Z,14.80
2023-04-19T03:18:18.033Z,13.70
2023-04-19T03:20:45.954Z,12.50
2023-04-19T03:23:13.674Z,12.10
2023-04-19T03:25:41.369Z,12.00
2023-04-19T03:28:09.920Z,12.30
2023-04-19T03:30:37.667Z,12.20
2023-04-19T03:33:05.781Z,11.70
2023-04-19T03:35:33.606Z,11.40
2023-04-19T03:38:01.337Z,10.60
2023-04-19T03:40:30.929Z,11.10
2023-04-19T03:42:59.274Z,10.80
2023-04-19T03:45:27.436Z,11.10
2023-04-19T03:47:55.173Z,10.50
2023-04-19T03:50:22.905Z,11.30
2023-04-19T03:52:50.754Z,10.90
2023-04-19T03:55:18.633Z,11.40
2023-04-19T03:57:46.740Z,11.00
2023-04-19T04:00:15.367Z,11.50
2023-04-19T04:02:43.275Z,11.40
2023-04-19T04:05:11.407Z,11.30
2023-04-19T04:07:39.258Z,11.00
2023-04-19T04:10:07.688Z,12.30
2023-04-19T04:12:35.347Z,12.10
2023-04-19T04:15:03.690Z,11.20
2023-04-19T04:17:31.525Z,11.00
2023-04-19T04:19:59.854Z,12.00
2023-04-19T04:22:28.431Z,12.00
2023-04-19T04:24:58.258Z,11.50
2023-04-19T04:27:26.078Z,10.30
2023-04-19T04:29:54.606Z,11.10
2023-04-19T04:32:23.647Z,10.80
2023-04-19T04:34:51.709Z,11.20
2023-04-19T04:37:19.481Z,11.30
2023-04-19T04:39:47.499Z,10.80
2023-04-19T04:42:15.240Z,9.90
2023-04-19T04:44:44.979Z,10.30
2023-04-19T04:47:13.787Z,10.00
2023-04-19T04:49:41.603Z,11.20
2023-04-19T04:52:09.621Z,10.90
2023-04-19T04:54:37.408Z,10.20
2023-04-19T04:57:05.748Z,10.30
2023-04-19T04:59:33.959Z,9.40
2023-04-19T05:02:01.750Z,9.20
2023-04-19T05:04:29.520Z,9.10
2023-04-19T05:06:57.253Z,9.30
2023-04-19T05:09:25.206Z,8.20
2023-04-19T05:11:53.409Z,8.20
2023-04-19T05:14:21.859Z,8.40
2023-04-19T05:16:49.859Z,8.90
2023-04-19T05:19:17.636Z,9.40
2023-04-19T05:21:45.461Z,8.40
2023-04-19T05:24:13.237Z,9.40
2023-04-19T05:26:41.624Z,9.10
2023-04-19T05:29:09.974Z,9.40
2023-04-19T05:31:37.842Z,8.40
2023-04-19T05:34:05.695Z,10.40
2023-04-19T05:36:33.449Z,8.80
2023-04-19T05:39:01.604Z,8.70
2023-04-19T05:41:29.906Z,7.90
2023-04-19T05:43:58.067Z,7.70
2023-04-19T05:46:26.194Z,8.10
2023-04-19T05:48:53.970Z,8.40
2023-04-19T05:51:21.733Z,7.90
2023-04-19T05:53:49.468Z,7.70
2023-04-19T05:56:17.681Z,7.70
2023-04-19T05:58:45.993Z,7.60
2023-04-19T06:01:14.392Z,8.70
2023-04-19T06:03:42.403Z,8.70
2023-04-19T06:06:10.460Z,8.30
2023-04-19T06:08:38.293Z,8.10
2023-04-19T06:11:15.930Z,8.50
2023-04-19T06:13:53.012Z,9.20
2023-04-19T06:16:20.998Z,8.50
2023-04-19T06:18:48.769Z,9.40
2023-04-19T06:21:17.044Z,8.50
2023-04-19T06:23:44.801Z,9.00
2023-04-19T06:26:12.982Z,8.50
2023-04-19T06:28:41.095Z,8.20
2023-04-19T06:31:08.798Z,9.30
2023-04-19T06:33:37.205Z,10.10
2023-04-19T06:36:05.596Z,9.30
2023-04-19T06:38:33.312Z,8.90
2023-04-19T06:41:01.656Z,8.70
2023-04-19T06:43:29.387Z,8.20
2023-04-19T06:46:01.135Z,7.80
2023-04-19T06:48:29.472Z,8.40
2023-04-19T06:50:57.795Z,9.50
2023-04-19T06:53:27.507Z,8.60
2023-04-19T06:56:03.060Z,8.50
2023-04-19T06:58:35.541Z,8.40
2023-04-19T07:01:04.829Z,8.80
2023-04-19T07:03:33.096Z,10.50
2023-04-19T07:06:01.703Z,8.50
2023-04-19T07:08:42.305Z,9.10
2023-04-19T07:11:16.921Z,8.20
2023-04-19T07:13:44.845Z,14.30
2023-04-19T07:16:14.549Z,11.60
2023-04-19T07:18:44.023Z,9.30
2023-04-19T07:21:12.413Z,9.10
2023-04-19T07:23:40.762Z,10.20
2023-04-19T07:26:08.682Z,14.40
2023-04-19T07:28:36.569Z,14.70
2023-04-19T07:31:04.432Z,13.70
2023-04-19T07:33:32.864Z,11.30
2023-04-19T07:36:00.671Z,17.70
2023-04-19T07:38:28.944Z,15.20
2023-04-19T07:40:56.644Z,19.50
2023-04-19T07:43:24.506Z,11.80
2023-04-19T07:45:52.896Z,11.80
2023-04-19T07:48:21.158Z,11.40
2023-04-19T07:50:49.388Z,12.10
2023-04-19T07:53:18.462Z,11.20
2023-04-19T07:55:46.211Z,12.80
2023-04-19T07:58:14.004Z,13.40
2023-04-19T08:00:41.728Z,10.80
2023-04-19T08:03:10.267Z,15.40
2023-04-19T08:05:38.702Z,18.90
2023-04-19T08:08:06.621Z,14.00
2023-04-19T08:10:35.993Z,11.90
2023-04-19T08:13:06.147Z,13.30
2023-04-19T08:18:07.140Z,16.20
2023-04-19T08:20:35.388Z,13.20
2023-04-19T08:23:14.012Z,11.70
2023-04-19T08:25:49.334Z,10.60
2023-04-19T08:28:18.063Z,11.90
2023-04-19T08:30:46.393Z,12.70
2023-04-19T08:33:14.702Z,13.00
2023-04-19T08:35:42.531Z,14.30
2023-04-19T08:38:10.296Z,12.80
2023-04-19T08:40:50.113Z,12.50
2023-04-19T08:43:19.638Z,15.80
2023-04-19T08:45:50.537Z,13.80
2023-04-19T08:48:21.285Z,11.80
2023-04-19T08:51:04.464Z,10.70
2023-04-19T08:53:35.208Z,10.70
2023-04-19T08:56:17.483Z,10.90
2023-04-19T09:01:34.015Z,11.40
2023-04-19T09:04:26.517Z,10.30
2023-04-19T09:06:57.236Z,9.50
2023-04-19T09:12:00.718Z,9.40
2023-04-19T09:14:30.290Z,8.90
2023-04-19T09:17:17.637Z,10.60
2023-04-19T09:19:49.601Z,11.80
2023-04-19T09:22:18.633Z,9.50
2023-04-19T09:25:27.715Z,9.70
2023-04-19T09:27:37.216Z,10.10
2023-04-19T09:30:10.807Z,9.50
2023-04-19T09:32:47.442Z,10.70
2023-04-19T09:35:15.520Z,9.00
2023-04-19T09:40:25.540Z,9.50
2023-04-19T09:48:07.857Z,9.90
2023-04-19T09:50:46.201Z,9.10
2023-04-19T09:53:23.873Z,9.30
2023-04-19T09:56:00.181Z,7.90
2023-04-19T10:01:13.575Z,8.70
2023-04-19T10:03:49.452Z,8.10
2023-04-19T10:08:53.659Z,9.00
2023-04-19T10:11:22.918Z,9.10
2023-04-19T10:13:56.378Z,9.70
2023-04-19T10:16:24.810Z,10.10
2023-04-19T10:18:54.049Z,9.10
2023-04-19T10:21:22.321Z,7.70
2023-04-19T10:23:50.707Z,8.00
2023-04-19T10:26:19.165Z,8.40
2023-04-19T10:28:48.255Z,8.30
2023-04-19T10:31:21.330Z,9.30
2023-04-19T10:33:51.569Z,8.60
2023-04-19T10:36:21.464Z,8.80
2023-04-19T10:38:55.838Z,9.00
2023-04-19T10:41:23.837Z,8.10
2023-04-19T10:43:58.266Z,9.60
2023-04-19T10:46:26.525Z,9.70
2023-04-19T10:49:00.371Z,8.70
2023-04-19T10:51:32.853Z,9.20
2023-04-19T10:54:23.751Z,10.10
2023-04-19T10:57:06.212Z,10.20
2023-04-19T10:59:36.778Z,10.80
2023-04-19T11:02:23.323Z,10.00
2023-04-19T11:04:51.278Z,11.30
2023-04-19T11:07:21.342Z,12.20
2023-04-19T11:09:51.198Z,10.70
2023-04-19T11:12:20.636Z,9.70
2023-04-19T11:14:59.905Z,11.60
2023-04-19T11:17:32.588Z,10.50
2023-04-19T11:20:08.689Z,9.50
2023-04-19T11:22:39.550Z,12.20
2023-04-19T11:25:20.916Z,9.80
2023-04-19T11:27:52.284Z,9.00
2023-04-19T11:30:22.715Z,10.10
2023-04-19T11:32:56.685Z,13.40
2023-04-19T11:35:27.265Z,10.50
2023-04-19T11:37:56.758Z,10.80
2023-04-19T11:40:26.505Z,10.70
2023-04-19T11:42:56.288Z,11.30
2023-04-19T11:45:32.983Z,10.70
2023-04-19T11:48:01.676Z,10.10
2023-04-19T11:50:39.822Z,10.50
2023-04-19T11:53:13.812Z,9.80
2023-04-19T11:55:45.501Z,10.60
2023-04-19T11:58:30.237Z,10.50
2023-04-19T12:01:08.885Z,11.80
2023-04-19T12:03:43.296Z,9.70
2023-04-19T12:06:16.891Z,10.70
2023-04-19T12:08:47.855Z,10.20
2023-04-19T12:11:17.279Z,9.40
2023-04-19T12:13:45.269Z,11.00
2023-04-19T12:16:14.089Z,9.70
2023-04-19T12:18:43.911Z,10.50
2023-04-19T12:21:23.810Z,11.00
2023-04-19T12:23:55.613Z,9.80
2023-04-19T12:26:24.637Z,9.40
2023-04-19T12:28:57.362Z,10.30
2023-04-19T12:31:26.231Z,10.70
2023-04-19T12:33:54.712Z,11.00
2023-04-19T12:36:22.494Z,10.00
2023-04-19T12:38:50.720Z,10.80
2023-04-19T12:41:19.351Z,8.60
2023-04-19T12:43:47.212Z,9.80
2023-04-19T12:46:15.092Z,12.00
2023-04-19T12:48:42.877Z,10.00
2023-04-19T12:51:11.109Z,9.50
2023-04-19T12:53:39.298Z,12.80
2023-04-19T12:56:07.693Z,12.30
2023-04-19T12:58:35.835Z,16.00
2023-04-19T13:01:03.617Z,10.20
2023-04-19T13:03:33.363Z,13.00
2023-04-19T13:06:01.666Z,10.90
2023-04-19T13:08:44.062Z,11.80
2023-04-19T13:11:15.937Z,12.10
2023-04-19T13:13:43.678Z,8.70
2023-04-19T13:16:11.595Z,9.40
2023-04-19T13:18:40.078Z,9.10
2023-04-19T13:21:08.617Z,9.20
2023-04-19T13:23:37.535Z,8.70
2023-04-19T13:26:06.339Z,10.10
2023-04-19T13:28:36.032Z,9.40
2023-04-19T13:31:05.388Z,8.20
2023-04-19T13:33:33.386Z,8.90
2023-04-19T13:36:01.736Z,11.10
2023-04-19T13:38:30.155Z,14.00
2023-04-19T13:40:58.001Z,11.40
2023-04-19T13:43:26.273Z,10.70
2023-04-19T13:45:54.179Z,13.20
2023-04-19T13:48:22.046Z,9.50
2023-04-19T13:50:51.924Z,9.40
2023-04-19T13:53:20.234Z,12.60
2023-04-19T13:55:47.960Z,11.00
2023-04-19T13:58:15.704Z,10.60
2023-04-19T14:00:43.845Z,9.00
2023-04-19T14:03:12.586Z,8.50
2023-04-19T14:05:41.147Z,6.30
2023-04-19T14:08:27.920Z,6.70
2023-04-19T14:10:55.679Z,7.10
2023-04-19T14:13:23.924Z,6.30
2023-04-19T14:15:52.196Z,9.10
2023-04-19T14:18:38.607Z,8.90
2023-04-19T14:21:06.445Z,8.70
2023-04-19T14:23:34.626Z,10.20
2023-04-19T14:26:02.789Z,10.20
2023-04-19T14:28:30.599Z,11.00
2023-04-19T14:30:58.389Z,10.80
2023-04-19T14:33:26.938Z,12.10
2023-04-19T14:35:54.740Z,11.70
2023-04-19T14:38:22.820Z,9.30
2023-04-19T14:40:51.296Z,12.10
2023-04-19T14:43:19.278Z,12.00
2023-04-19T14:45:49.826Z,11.30
2023-04-19T14:48:20.823Z,13.70
2023-04-19T14:50:49.814Z,13.80
2023-04-19T14:53:18.815Z,13.30
2023-04-19T14:55:46.595Z,14.20
2023-04-19T14:58:14.516Z,11.70
2023-04-19T15:00:42.308Z,13.80
2023-04-19T15:03:10.350Z,19.50
2023-04-19T15:05:39.523Z,15.90
2023-04-19T15:08:12.443Z,15.70
2023-04-19T15:10:45.185Z,11.50
2023-04-19T15:13:12.910Z,12.20
2023-04-19T15:15:40.689Z,13.60
2023-04-19T15:18:09.083Z,16.10
2023-04-19T15:20:36.917Z,14.40
2023-04-19T15:23:04.655Z,12.90
2023-04-19T15:25:32.344Z,12.50
2023-04-19T15:28:00.036Z,12.90
2023-04-19T15:30:27.814Z,11.60
2023-04-19T15:32:55.609Z,11.30
2023-04-19T15:35:23.355Z,12.50
2023-04-19T15:37:51.082Z,13.00
2023-04-19T15:40:18.957Z,9.20
2023-04-19T15:42:46.654Z,11.20
2023-04-19T15:45:14.837Z,9.40
2023-04-19T15:47:42.634Z,11.40
2023-04-19T15:50:11.061Z,10.40
2023-04-19T15:52:38.770Z,10.70
2023-04-19T15:55:06.793Z,11.60
2023-04-19T15:57:34.537Z,11.80
2023-04-19T16:00:02.260Z,15.10
2023-04-19T16:02:30.203Z,13.40
2023-04-19T16:04:58.219Z,15.30
2023-04-19T16:07:26.135Z,16.00
2023-04-19T16:09:54.158Z,15.30
2023-04-19T16:12:21.859Z,15.50
2023-04-19T16:14:49.618Z,16.40
2023-04-19T16:17:17.366Z,16.40
2023-04-19T16:19:45.066Z,15.00
2023-04-19T16:22:12.869Z,16.00
2023-04-19T16:24:40.700Z,13.20
2023-04-19T16:27:08.456Z,16.00
2023-04-19T16:29:38.507Z,15.10
2023-04-19T16:32:07.168Z,13.40
2023-04-19T16:34:34.991Z,13.70
2023-04-19T16:37:03.153Z,14.30
2023-04-19T16:39:31.174Z,12.40
2023-04-19T16:41:58.916Z,12.30
2023-04-19T16:44:26.683Z,15.20
2023-04-19T16:46:54.608Z,13.70
2023-04-19T16:49:22.650Z,22.00
2023-04-19T16:51:50.374Z,22.00
2023-04-19T16:54:18.181Z,23.90
2023-04-19T16:56:45.868Z,22.80
2023-04-19T16:59:13.552Z,25.00
2023-04-19T17:01:41.319Z,26.60
2023-04-19T17:04:09.338Z,22.20
2023-04-19T17:06:37.374Z,21.60
2023-04-19T17:09:05.753Z,21.80
2023-04-19T17:11:34.082Z,22.70
2023-04-19T17:14:01.861Z,20.70
2023-04-19T17:16:29.643Z,26.20
2023-04-19T17:18:57.417Z,33.20
2023-04-19T17:21:25.930Z,31.50
2023-04-19T17:23:53.923Z,29.10
2023-04-19T17:26:21.607Z,21.60
2023-04-19T17:28:49.283Z,23.70
2023-04-19T17:31:17.048Z,23.90
2023-04-19T17:33:44.784Z,26.30
2023-04-19T17:36:12.476Z,42.50
2023-04-19T17:38:40.165Z,41.50
2023-04-19T17:41:16.147Z,36.80
2023-04-19T17:43:45.028Z,34.70
2023-04-19T17:46:13.648Z,27.70
2023-04-19T17:48:42.033Z,35.60
2023-04-19T17:51:09.898Z,25.10
2023-04-19T17:53:37.649Z,23.80
2023-04-19T17:56:05.482Z,19.40
2023-04-19T17:58:35.211Z,33.20
2023-04-19T18:01:06.794Z,26.20
2023-04-19T18:03:35.044Z,19.60
2023-04-19T18:06:02.980Z,28.20
2023-04-19T18:08:31.120Z,25.40
2023-04-19T18:10:58.966Z,21.20
2023-04-19T18:13:26.760Z,19.20
2023-04-19T18:15:54.636Z,28.40
2023-04-19T18:18:22.709Z,34.90
2023-04-19T18:20:50.498Z,46.90
2023-04-19T18:23:18.823Z,54.70
2023-04-19T18:25:55.958Z,72.20
2023-04-19T18:28:23.716Z,118.40
2023-04-19T18:30:51.558Z,102.50
2023-04-19T18:33:19.306Z,96.90
2023-04-19T18:35:46.999Z,95.30
2023-04-19T18:38:15.456Z,99.70
2023-04-19T18:40:43.260Z,92.70
2023-04-19T18:43:10.989Z,84.60
2023-04-19T18:45:38.839Z,98.80
2023-04-19T18:48:07.024Z,83.80
2023-04-19T18:50:37.072Z,73.80
2023-04-19T18:53:05.276Z,64.40
2023-04-19T18:55:33.148Z,73.00
2023-04-19T18:58:01.614Z,52.90
2023-04-19T19:00:29.541Z,57.70
2023-04-19T19:02:57.752Z,66.40
2023-04-19T19:05:26.408Z,64.10
2023-04-19T19:07:54.815Z,53.00
2023-04-19T19:10:48.524Z,47.10
2023-04-19T19:13:13.060Z,40.20
2023-04-19T19:15:42.077Z,38.10
2023-04-19T19:18:09.880Z,37.20
2023-04-19T19:20:37.688Z,36.50
2023-04-19T19:23:06.113Z,37.20
2023-04-19T19:25:33.868Z,55.40
2023-04-19T19:28:09.276Z,49.50
2023-04-19T19:30:40.202Z,48.90
2023-04-19T19:33:11.954Z,45.40
2023-04-19T19:35:40.122Z,45.10
2023-04-19T19:38:08.390Z,40.30
2023-04-19T19:40:46.334Z,38.00
2023-04-19T19:43:24.547Z,34.30
2023-04-19T19:45:52.303Z,38.30
2023-04-19T19:48:21.684Z,38.90
2023-04-19T19:51:17.404Z,36.70
2023-04-19T19:53:37.620Z,34.80
2023-04-19T19:56:13.054Z,37.70
2023-04-19T19:58:50.367Z,43.40
2023-04-19T20:01:22.656Z,47.80
2023-04-19T20:03:51.811Z,41.70
2023-04-19T20:07:07.536Z,41.60
2023-04-19T20:09:07.748Z,40.00
2023-04-19T20:11:35.571Z,39.30
2023-04-19T20:14:03.336Z,37.80
2023-04-19T20:16:31.940Z,36.40
2023-04-19T20:19:00.320Z,35.60
2023-04-19T20:21:28.130Z,33.40
2023-04-19T20:23:55.891Z,32.20
2023-04-19T20:26:23.679Z,33.00
2023-04-19T20:28:52.702Z,34.90
2023-04-19T20:31:22.666Z,33.00
2023-04-19T20:33:52.713Z,33.80
2023-04-19T20:36:23.329Z,34.70
2023-04-19T20:38:51.365Z,36.80
2023-04-19T20:41:21.977Z,34.70
2023-04-19T20:43:49.756Z,39.20
2023-04-19T20:46:17.605Z,34.70
2023-04-19T20:48:45.373Z,32.60
2023-04-19T20:51:15.371Z,30.10
2023-04-19T20:53:43.761Z,25.90
2023-04-19T20:56:11.504Z,24.70
2023-04-19T20:58:39.640Z,23.80
2023-04-19T21:01:07.461Z,22.30
2023-04-19T21:03:35.411Z,23.00
2023-04-19T21:06:03.360Z,23.80
2023-04-19T21:08:31.632Z,25.80
2023-04-19T21:10:59.806Z,26.90
2023-04-19T21:13:27.508Z,22.60
2023-04-19T21:15:55.906Z,23.80
2023-04-19T21:18:24.714Z,22.40
2023-04-19T21:20:52.409Z,22.20
2023-04-19T21:23:20.688Z,21.50
2023-04-19T21:25:48.432Z,23.20
2023-04-19T21:28:16.223Z,37.80
2023-04-19T21:30:44.020Z,36.90
2023-04-19T21:33:11.957Z,48.00
2023-04-19T21:35:39.744Z,60.30
2023-04-19T21:38:08.177Z,60.20
2023-04-19T21:40:35.904Z,46.20
2023-04-19T21:43:03.902Z,39.60
2023-04-19T21:45:31.592Z,34.50
2023-04-19T21:47:59.371Z,30.00
2023-04-19T21:50:27.200Z,27.30
2023-04-19T21:52:55.339Z,26.20
2023-04-19T21:55:23.201Z,26.90
2023-04-19T21:57:51.447Z,25.10
2023-04-19T22:00:19.218Z,23.00
2023-04-19T22:02:47.097Z,22.70
2023-04-19T22:05:16.763Z,24.80
2023-04-19T22:07:45.007Z,20.50
2023-04-19T22:10:13.913Z,15.70
2023-04-19T22:12:55.120Z,17.80
2023-04-19T22:15:28.088Z,14.90
2023-04-19T22:17:57.647Z,15.20
2023-04-19T22:20:26.871Z,16.10
2023-04-19T22:22:55.652Z,16.10
2023-04-19T22:25:23.323Z,16.30
2023-04-19T22:27:51.028Z,18.30
2023-04-19T22:30:19.254Z,17.90
2023-04-19T22:32:47.065Z,17.40
2023-04-19T22:35:15.105Z,17.20
2023-04-19T22:37:43.067Z,17.70
2023-04-19T22:40:11.311Z,19.10
2023-04-19T22:42:39.124Z,19.20
2023-04-19T22:45:08.210Z,19.20
2023-04-19T22:47:37.623Z,18.10
2023-04-19T22:50:06.565Z,18.80
2023-04-19T22:52:34.764Z,18.10
2023-04-19T22:55:02.564Z,18.50
2023-04-19T22:57:30.300Z,19.70
2023-04-19T22:59:58.565Z,18.20
2023-04-19T23:02:26.276Z,17.20
2023-04-19T23:04:54.571Z,16.80
2023-04-19T23:07:22.771Z,17.00
2023-04-19T23:09:51.054Z,17.40
2023-04-19T23:12:18.725Z,16.40
2023-04-19T23:14:48.581Z,16.90
2023-04-19T23:17:17.344Z,16.70
2023-04-19T23:19:45.174Z,16.40
2023-04-19T23:22:12.952Z,19.90
2023-04-19T23:24:40.628Z,16.30
2023-04-19T23:27:08.415Z,14.80
2023-04-19T23:29:36.162Z,13.50
2023-04-19T23:32:04.100Z,11.80
2023-04-19T23:34:32.073Z,12.40
2023-04-19T23:37:00.057Z,12.60
2023-04-19T23:39:27.880Z,11.30
2023-04-19T23:41:55.702Z,11.20
2023-04-19T23:44:23.520Z,11.80
2023-04-19T23:46:51.474Z,11.60
2023-04-19T23:49:19.605Z,11.20
2023-04-19T23:51:50.277Z,11.10
2023-04-19T23:54:26.265Z,10.90
2023-04-19T23:56:54.903Z,11.30
2023-04-19T23:59:26.813Z,12.20
